createdAt,value
2019-02-26T00:00:13.000Z,25.7
2019-02-26T00:01:15.000Z,25.7
2019-02-26T00:02:26.000Z,25.7
2019-02-26T00:03:26.000Z,25.7
2019-02-26T00:05:26.000Z,25.8
2019-02-26T00:07:10.000Z,25.9
2019-02-26T00:08:25.000Z,25.9
2019-02-26T00:09:25.000Z,25.9
2019-02-26T00:10:25.000Z,25.9
2019-02-26T00:11:25.000Z,25.9
2019-02-26T00:12:25.000Z,26
2019-02-26T00:13:26.000Z,26
2019-02-26T00:15:25.000Z,26
2019-02-26T00:17:11.000Z,26
2019-02-26T00:18:13.000Z,26
2019-02-26T00:19:13.000Z,25.9
2019-02-26T00:21:25.000Z,26
2019-02-26T00:23:26.000Z,25.9
2019-02-26T00:25:11.000Z,25.9
2019-02-26T00:26:13.000Z,25.9
2019-02-26T00:27:26.000Z,25.8
2019-02-26T00:29:26.000Z,25.8
2019-02-26T00:31:26.000Z,25.8
2019-02-26T00:33:26.000Z,25.8
2019-02-26T00:35:26.000Z,25.8
2019-02-26T00:37:26.000Z,25.8
2019-02-26T00:39:26.000Z,25.8
2019-02-26T00:41:26.000Z,25.8
2019-02-26T00:43:26.000Z,25.7
2019-02-26T00:45:26.000Z,25.8
2019-02-26T00:47:26.000Z,25.8
2019-02-26T00:48:26.000Z,25.8
2019-02-26T00:50:11.000Z,25.9
2019-02-26T00:51:26.000Z,25.9
2019-02-26T00:53:26.000Z,26
2019-02-26T00:54:26.000Z,26
2019-02-26T00:56:26.000Z,26
2019-02-26T00:58:11.000Z,26
2019-02-26T00:59:26.000Z,26
2019-02-26T01:01:11.000Z,25.9
2019-02-26T01:02:26.000Z,25.9
2019-02-26T01:04:26.000Z,26
2019-02-26T01:06:26.000Z,26
2019-02-26T01:07:26.000Z,26
2019-02-26T01:09:26.000Z,26
2019-02-26T01:11:26.000Z,25.9
2019-02-26T01:13:26.000Z,25.9
2019-02-26T01:15:11.000Z,25.9
2019-02-26T01:16:26.000Z,25.8
2019-02-26T01:18:26.000Z,25.8
2019-02-26T01:20:26.000Z,25.8
2019-02-26T01:21:26.000Z,25.8
2019-02-26T01:22:26.000Z,25.9
2019-02-26T01:24:10.000Z,26
2019-02-26T01:25:12.000Z,26
2019-02-26T01:27:26.000Z,26
2019-02-26T01:29:11.000Z,26
2019-02-26T01:30:26.000Z,26
2019-02-26T01:32:11.000Z,25.9
2019-02-26T01:33:26.000Z,25.9
2019-02-26T01:35:11.000Z,25.8
2019-02-26T01:36:13.000Z,25.8
2019-02-26T01:38:11.000Z,25.6
2019-02-26T01:39:15.000Z,25.6
2019-02-26T01:41:11.000Z,25.5
2019-02-26T01:42:14.000Z,25.5
2019-02-26T01:44:26.000Z,25.4
2019-02-26T01:45:26.000Z,25.5
2019-02-26T01:47:11.000Z,25.5
2019-02-26T01:48:16.000Z,25.5
2019-02-26T01:50:11.000Z,25.6
2019-02-26T01:51:26.000Z,25.6
2019-02-26T01:53:11.000Z,25.6
2019-02-26T01:54:13.000Z,25.5
2019-02-26T01:55:26.000Z,25.5
2019-02-26T01:57:26.000Z,25.5
2019-02-26T01:59:26.000Z,25.6
2019-02-26T02:00:26.000Z,25.7
2019-02-26T02:02:14.000Z,25.9
2019-02-26T02:03:26.000Z,25.9
2019-02-26T02:05:26.000Z,25.9
2019-02-26T02:07:26.000Z,25.8
2019-02-26T02:09:11.000Z,25.8
2019-02-26T02:10:26.000Z,25.7
2019-02-26T02:11:26.000Z,25.8
2019-02-26T02:13:26.000Z,25.9
2019-02-26T02:15:11.000Z,25.9
2019-02-26T02:16:26.000Z,25.8
2019-02-26T02:18:26.000Z,25.8
2019-02-26T02:20:11.000Z,25.7
2019-02-26T02:21:26.000Z,25.7
2019-02-26T02:23:26.000Z,25.7
2019-02-26T02:25:26.000Z,25.6
2019-02-26T02:27:11.000Z,25.6
2019-02-26T02:28:26.000Z,25.6
2019-02-26T02:30:11.000Z,25.5
2019-02-26T02:31:26.000Z,25.5
2019-02-26T02:33:26.000Z,25.6
2019-02-26T02:35:11.000Z,25.6
2019-02-26T02:36:14.000Z,25.6
2019-02-26T02:37:26.000Z,25.6
2019-02-26T02:39:11.000Z,25.6
2019-02-26T02:40:26.000Z,25.6
2019-02-26T02:42:11.000Z,25.7
2019-02-26T02:44:14.000Z,25.7
2019-02-26T02:45:16.000Z,25.6
2019-02-26T02:46:26.000Z,25.6
2019-02-26T02:47:26.000Z,25.6
2019-02-26T02:49:11.000Z,25.7
2019-02-26T02:51:11.000Z,25.7
2019-02-26T02:52:11.000Z,25.6
2019-02-26T02:53:26.000Z,25.6
2019-02-26T02:55:15.000Z,25.6
2019-02-26T02:57:26.000Z,25.5
2019-02-26T02:59:11.000Z,25.5
2019-02-26T03:00:26.000Z,25.5
2019-02-26T03:02:11.000Z,25.5
2019-02-26T03:03:26.000Z,25.5
2019-02-26T03:05:26.000Z,25.6
2019-02-26T03:07:26.000Z,25.6
2019-02-26T03:09:11.000Z,25.6
2019-02-26T03:10:12.000Z,25.6
2019-02-26T03:12:26.000Z,25.5
2019-02-26T03:14:11.000Z,25.6
2019-02-26T03:15:26.000Z,25.6
2019-02-26T03:17:11.000Z,25.6
2019-02-26T03:18:14.000Z,25.6
2019-02-26T03:19:14.000Z,25.5
2019-02-26T03:20:26.000Z,25.4
2019-02-26T03:21:26.000Z,25.5
2019-02-26T03:23:11.000Z,25.5
2019-02-26T03:24:26.000Z,25.4
2019-02-26T03:26:11.000Z,25.4
2019-02-26T03:27:26.000Z,25.4
2019-02-26T03:29:26.000Z,25.4
2019-02-26T03:31:26.000Z,25.5
2019-02-26T03:32:26.000Z,25.6
2019-02-26T03:34:11.000Z,25.7
2019-02-26T03:35:13.000Z,25.7
2019-02-26T03:36:14.000Z,25.7
2019-02-26T03:37:26.000Z,25.6
2019-02-26T03:39:26.000Z,25.6
2019-02-26T03:41:27.000Z,25.8
2019-02-26T03:43:12.000Z,25.8
2019-02-26T03:44:27.000Z,25.7
2019-02-26T03:46:27.000Z,25.7
2019-02-26T03:48:27.000Z,25.8
2019-02-26T03:49:27.000Z,25.9
2019-02-26T03:50:27.000Z,26
2019-02-26T03:52:12.000Z,26.3
2019-02-26T03:54:12.000Z,26
2019-02-26T03:56:11.000Z,26.2
2019-02-26T03:57:14.000Z,26.1
2019-02-26T03:58:26.000Z,26
2019-02-26T04:00:12.000Z,26
2019-02-26T04:02:14.000Z,25.8
2019-02-26T04:04:26.000Z,25.7
2019-02-26T04:05:27.000Z,25.6
2019-02-26T04:07:26.000Z,25.7
2019-02-26T04:08:27.000Z,25.7
2019-02-26T04:10:26.000Z,25.7
2019-02-26T04:12:12.000Z,25.8
2019-02-26T04:13:27.000Z,25.8
2019-02-26T04:15:26.000Z,25.8
2019-02-26T04:16:27.000Z,25.8
2019-02-26T04:18:27.000Z,25.9
2019-02-26T04:19:27.000Z,26
2019-02-26T04:21:12.000Z,26.1
2019-02-26T04:22:14.000Z,26.1
2019-02-26T04:23:16.000Z,26
2019-02-26T04:24:27.000Z,26
2019-02-26T04:26:12.000Z,25.9
2019-02-26T04:28:27.000Z,25.7
2019-02-26T04:30:12.000Z,25.7
2019-02-26T04:31:27.000Z,25.6
2019-02-26T04:33:14.000Z,25.6
2019-02-26T04:34:26.000Z,25.7
2019-02-26T04:36:12.000Z,25.8
2019-02-26T04:37:13.000Z,25.7
2019-02-26T04:38:27.000Z,25.6
2019-02-26T04:40:14.000Z,25.5
2019-02-26T04:41:15.000Z,25.4
2019-02-26T04:42:15.000Z,25.4
2019-02-26T04:44:27.000Z,25.3
2019-02-26T04:45:27.000Z,25.2
2019-02-26T04:47:26.000Z,25.3
2019-02-26T04:49:26.000Z,25.4
2019-02-26T04:50:26.000Z,25.4
2019-02-26T04:51:26.000Z,25.4
2019-02-26T04:53:26.000Z,25.5
2019-02-26T04:55:26.000Z,25.4
2019-02-26T04:57:26.000Z,25.4
2019-02-26T04:59:11.000Z,25.4
2019-02-26T05:01:14.000Z,25.3
2019-02-26T05:02:26.000Z,25.3
2019-02-26T05:04:26.000Z,25.4
2019-02-26T05:06:26.000Z,25.4
2019-02-26T05:08:13.000Z,25.6
2019-02-26T05:09:26.000Z,25.5
2019-02-26T05:10:26.000Z,25.5
2019-02-26T05:12:26.000Z,25.5
2019-02-26T05:14:14.000Z,25.5
2019-02-26T05:15:16.000Z,25.4
2019-02-26T05:16:26.000Z,25.4
2019-02-26T05:17:26.000Z,25.4
2019-02-26T05:18:26.000Z,25.4
2019-02-26T05:20:11.000Z,25.4
2019-02-26T05:21:12.000Z,25.4
2019-02-26T05:22:26.000Z,25.4
2019-02-26T05:23:26.000Z,25.4
2019-02-26T05:25:11.000Z,25.4
2019-02-26T05:26:15.000Z,25.4
2019-02-26T05:28:11.000Z,25.3
2019-02-26T05:30:14.000Z,25.2
2019-02-26T05:32:26.000Z,25.1
2019-02-26T05:33:26.000Z,25.1
2019-02-26T05:35:11.000Z,25.2
2019-02-26T05:36:13.000Z,25.1
2019-02-26T05:38:26.000Z,25.1
2019-02-26T05:40:11.000Z,25.1
2019-02-26T05:42:26.000Z,25.1
2019-02-26T05:43:26.000Z,25.1
2019-02-26T05:45:26.000Z,25.4
2019-02-26T05:47:11.000Z,25.5
2019-02-26T05:48:12.000Z,25.5
2019-02-26T05:49:15.000Z,25.5
2019-02-26T05:50:15.000Z,25.4
2019-02-26T05:51:26.000Z,25.4
2019-02-26T05:53:11.000Z,25.4
2019-02-26T05:54:17.000Z,25.4
2019-02-26T05:56:11.000Z,25.4
2019-02-26T05:58:15.000Z,25.2
2019-02-26T06:00:11.000Z,25.2
2019-02-26T06:01:14.000Z,25.1
2019-02-26T06:02:15.000Z,25.1
2019-02-26T06:04:11.000Z,25
2019-02-26T06:05:14.000Z,25
2019-02-26T06:06:26.000Z,25
2019-02-26T06:07:26.000Z,25.1
2019-02-26T06:09:26.000Z,25.3
2019-02-26T06:10:26.000Z,25.4
2019-02-26T06:11:26.000Z,25.4
2019-02-26T06:13:11.000Z,25.5
2019-02-26T06:14:12.000Z,25.5
2019-02-26T06:15:26.000Z,25.5
2019-02-26T06:17:14.000Z,25.5
2019-02-26T06:18:26.000Z,25.5
2019-02-26T06:20:26.000Z,25.5
2019-02-26T06:22:11.000Z,25.5
2019-02-26T06:24:26.000Z,25.4
2019-02-26T06:26:11.000Z,25.3
2019-02-26T06:27:15.000Z,25.3
2019-02-26T06:29:11.000Z,25.2
2019-02-26T06:30:12.000Z,25.2
2019-02-26T06:31:14.000Z,25.2
2019-02-26T06:33:11.000Z,25.2
2019-02-26T06:34:15.000Z,25.1
2019-02-26T06:36:26.000Z,25.1
2019-02-26T06:38:26.000Z,25.2
2019-02-26T06:39:26.000Z,25.2
2019-02-26T06:40:26.000Z,25.3
2019-02-26T06:42:11.000Z,25.5
2019-02-26T06:43:26.000Z,25.5
2019-02-26T06:45:15.000Z,25.6
2019-02-26T06:47:26.000Z,25.6
2019-02-26T06:49:26.000Z,25.6
2019-02-26T06:51:26.000Z,25.7
2019-02-26T06:53:11.000Z,25.7
2019-02-26T06:54:15.000Z,25.7
2019-02-26T06:55:26.000Z,25.7
2019-02-26T06:56:26.000Z,25.8
2019-02-26T06:58:26.000Z,26.1
2019-02-26T07:00:26.000Z,26.2
2019-02-26T07:02:26.000Z,26.2
2019-02-26T07:04:11.000Z,26.3
2019-02-26T07:05:26.000Z,26.3
2019-02-26T07:07:11.000Z,26.4
2019-02-26T07:08:26.000Z,26.4
2019-02-26T07:10:11.000Z,26.4
2019-02-26T07:11:26.000Z,26.4
2019-02-26T07:13:11.000Z,26.4
2019-02-26T07:14:26.000Z,26.4
2019-02-26T07:16:26.000Z,26.4
2019-02-26T07:17:26.000Z,26.5
2019-02-26T07:19:11.000Z,26.6
2019-02-26T07:20:26.000Z,26.6
2019-02-26T07:21:26.000Z,26.7
2019-02-26T07:23:11.000Z,26.8
2019-02-26T07:24:26.000Z,26.8
2019-02-26T07:26:11.000Z,26.8
2019-02-26T07:27:13.000Z,26.9
2019-02-26T07:28:26.000Z,26.9
2019-02-26T07:30:26.000Z,27
2019-02-26T07:32:12.000Z,27.1
2019-02-26T07:33:13.000Z,27.1
2019-02-26T07:34:26.000Z,27.1
2019-02-26T07:36:26.000Z,27.2
2019-02-26T07:38:26.000Z,27.3
2019-02-26T07:40:11.000Z,27.4
2019-02-26T07:41:26.000Z,27.4
2019-02-26T07:43:11.000Z,27.4
2019-02-26T07:44:14.000Z,27.4
2019-02-26T07:46:11.000Z,27.4
2019-02-26T07:47:26.000Z,27.4
2019-02-26T07:49:26.000Z,27.5
2019-02-26T07:51:26.000Z,27.8
2019-02-26T07:52:26.000Z,27.9
2019-02-26T07:54:26.000Z,28.2
2019-02-26T07:56:26.000Z,28.6
2019-02-26T07:57:26.000Z,28.8
2019-02-26T07:59:11.000Z,29.3
2019-02-26T08:00:26.000Z,29.6
2019-02-26T08:02:12.000Z,30.2
2019-02-26T08:03:26.000Z,30.6
2019-02-26T08:05:26.000Z,31.1
2019-02-26T08:07:26.000Z,31.6
2019-02-26T08:09:11.000Z,32
2019-02-26T08:10:13.000Z,32.2
2019-02-26T08:12:13.000Z,32.5
2019-02-26T08:13:26.000Z,32.7
2019-02-26T08:15:11.000Z,33.1
2019-02-26T08:17:26.000Z,33.3
2019-02-26T08:19:26.000Z,33.8
2019-02-26T08:21:26.000Z,34.2
2019-02-26T08:22:26.000Z,34.4
2019-02-26T08:23:26.000Z,34.6
2019-02-26T08:25:26.000Z,35
2019-02-26T08:26:26.000Z,35.2
2019-02-26T08:28:11.000Z,35.6
2019-02-26T08:30:11.000Z,35.9
2019-02-26T08:31:15.000Z,36
2019-02-26T08:33:26.000Z,36.1
2019-02-26T08:35:26.000Z,36.4
2019-02-26T08:37:26.000Z,36.7
2019-02-26T08:38:26.000Z,37
2019-02-26T08:40:11.000Z,36.6
2019-02-26T08:41:26.000Z,35.5
2019-02-26T08:43:26.000Z,34.1
2019-02-26T08:45:11.000Z,33.1
2019-02-26T08:46:13.000Z,32.6
2019-02-26T08:47:13.000Z,32.1
2019-02-26T08:48:14.000Z,31.7
2019-02-26T08:49:14.000Z,31.3
2019-02-26T08:51:15.000Z,30.6
2019-02-26T08:52:26.000Z,30.3
2019-02-26T08:54:11.000Z,30
2019-02-26T08:55:13.000Z,29.9
2019-02-26T08:56:26.000Z,29.7
2019-02-26T08:57:26.000Z,29.6
2019-02-26T08:59:26.000Z,29.5
2019-02-26T09:00:26.000Z,29.5
2019-02-26T09:01:26.000Z,29.6
2019-02-26T09:03:11.000Z,29.8
2019-02-26T09:05:26.000Z,29.6
2019-02-26T09:07:11.000Z,29.4
2019-02-26T09:08:14.000Z,29.3
2019-02-26T09:09:26.000Z,29.2
2019-02-26T09:11:11.000Z,29
2019-02-26T09:12:26.000Z,29
2019-02-26T09:14:13.000Z,28.9
2019-02-26T09:15:26.000Z,28.8
2019-02-26T09:17:11.000Z,28.8
2019-02-26T09:18:26.000Z,28.8
2019-02-26T09:20:11.000Z,28.8
2019-02-26T09:21:14.000Z,28.8
2019-02-26T09:23:15.000Z,28.8
2019-02-26T09:24:26.000Z,28.8
2019-02-26T09:25:26.000Z,28.9
2019-02-26T09:27:11.000Z,29
2019-02-26T09:28:26.000Z,29
2019-02-26T09:30:11.000Z,29
2019-02-26T09:31:13.000Z,28.9
2019-02-26T09:33:26.000Z,28.9
2019-02-26T09:35:26.000Z,28.9
2019-02-26T09:37:26.000Z,28.8
2019-02-26T09:39:11.000Z,28.8
2019-02-26T09:40:26.000Z,28.8
2019-02-26T09:42:26.000Z,28.7
2019-02-26T09:44:26.000Z,28.6
2019-02-26T09:45:26.000Z,28.6
2019-02-26T09:47:26.000Z,28.6
2019-02-26T09:49:11.000Z,28.6
2019-02-26T09:50:12.000Z,28.5
2019-02-26T09:51:13.000Z,28.5
2019-02-26T09:52:26.000Z,28.4
2019-02-26T09:53:26.000Z,28.4
2019-02-26T09:55:26.000Z,28.5
2019-02-26T09:57:11.000Z,28.7
2019-02-26T09:58:14.000Z,28.7
2019-02-26T10:00:26.000Z,28.5
2019-02-26T10:02:26.000Z,28.5
2019-02-26T10:04:26.000Z,28.4
2019-02-26T10:06:11.000Z,28.4
2019-02-26T10:07:13.000Z,28.4
2019-02-26T10:08:26.000Z,28.4
2019-02-26T10:10:13.000Z,28.4
2019-02-26T10:11:26.000Z,28.5
2019-02-26T10:13:26.000Z,28.5
2019-02-26T10:15:26.000Z,28.5
2019-02-26T10:16:26.000Z,28.6
2019-02-26T10:18:26.000Z,28.6
2019-02-26T10:20:26.000Z,28.6
2019-02-26T10:22:11.000Z,28.6
2019-02-26T10:23:26.000Z,28.5
2019-02-26T10:25:26.000Z,28.5
2019-02-26T10:27:11.000Z,28.5
2019-02-26T10:29:11.000Z,28.5
2019-02-26T10:31:26.000Z,28.4
2019-02-26T10:33:26.000Z,28.4
2019-02-26T10:35:11.000Z,28.4
2019-02-26T10:36:14.000Z,28.4
2019-02-26T10:37:26.000Z,28.4
2019-02-26T10:39:26.000Z,28.5
2019-02-26T10:41:26.000Z,28.5
2019-02-26T10:43:26.000Z,28.5
2019-02-26T10:44:26.000Z,28.6
2019-02-26T10:46:26.000Z,28.8
2019-02-26T10:48:11.000Z,28.8
2019-02-26T10:49:11.000Z,28.8
2019-02-26T10:50:14.000Z,28.8
2019-02-26T10:51:26.000Z,28.8
2019-02-26T10:53:11.000Z,28.8
2019-02-26T10:54:16.000Z,28.8
2019-02-26T10:56:26.000Z,28.6
2019-02-26T10:58:11.000Z,28.6
2019-02-26T10:59:14.000Z,28.5
2019-02-26T11:01:26.000Z,28.4
2019-02-26T11:03:11.000Z,28.4
2019-02-26T11:04:26.000Z,28.4
2019-02-26T11:06:11.000Z,28.4
2019-02-26T11:07:13.000Z,28.4
2019-02-26T11:08:26.000Z,28.4
2019-02-26T11:10:11.000Z,28.4
2019-02-26T11:11:13.000Z,28.4
2019-02-26T11:12:26.000Z,28.4
2019-02-26T11:14:11.000Z,28.4
2019-02-26T11:15:11.000Z,28.3
2019-02-26T11:16:17.000Z,28.4
2019-02-26T11:17:26.000Z,28.4
2019-02-26T11:19:11.000Z,28.4
2019-02-26T11:21:26.000Z,28.4
2019-02-26T11:23:11.000Z,28.5
2019-02-26T11:24:26.000Z,28.6
2019-02-26T11:26:11.000Z,28.6
2019-02-26T11:27:26.000Z,28.5
2019-02-26T11:29:26.000Z,28.6
2019-02-26T11:31:11.000Z,28.6
2019-02-26T11:32:14.000Z,28.6
2019-02-26T11:33:14.000Z,28.6
2019-02-26T11:35:11.000Z,28.5
2019-02-26T11:36:12.000Z,28.4
2019-02-26T11:37:26.000Z,28.4
2019-02-26T11:39:11.000Z,28.4
2019-02-26T11:40:26.000Z,28.5
2019-02-26T11:42:26.000Z,28.6
2019-02-26T11:44:11.000Z,28.6
2019-02-26T11:45:13.000Z,28.6
2019-02-26T11:46:26.000Z,28.6
2019-02-26T11:48:26.000Z,28.6
2019-02-26T11:50:26.000Z,28.5
2019-02-26T11:52:26.000Z,28.5
2019-02-26T11:53:26.000Z,28.6
2019-02-26T11:55:26.000Z,28.7
2019-02-26T11:57:14.000Z,28.7
2019-02-26T11:58:15.000Z,28.6
2019-02-26T12:00:11.000Z,28.5
2019-02-26T12:01:26.000Z,28.5
2019-02-26T12:03:11.000Z,28.5
2019-02-26T12:04:16.000Z,28.5
2019-02-26T12:05:26.000Z,28.5
2019-02-26T12:06:26.000Z,28.6
2019-02-26T12:08:11.000Z,28.7
2019-02-26T12:09:13.000Z,28.7
2019-02-26T12:10:14.000Z,28.7
2019-02-26T12:11:17.000Z,28.7
2019-02-26T12:12:26.000Z,28.7
2019-02-26T12:14:11.000Z,28.7
2019-02-26T12:15:14.000Z,28.6
2019-02-26T12:16:26.000Z,28.6
2019-02-26T12:18:11.000Z,28.7
2019-02-26T12:19:26.000Z,28.6
2019-02-26T12:21:11.000Z,28.6
2019-02-26T12:22:26.000Z,28.6
2019-02-26T12:24:11.000Z,28.6
2019-02-26T12:25:26.000Z,28.6
2019-02-26T12:27:11.000Z,28.7
2019-02-26T12:28:13.000Z,28.8
2019-02-26T12:29:26.000Z,28.8
2019-02-26T12:31:12.000Z,28.8
2019-02-26T12:32:26.000Z,28.8
2019-02-26T12:34:11.000Z,28.7
2019-02-26T12:37:11.000Z,28.6
2019-02-26T12:44:10.000Z,28.3
2019-02-26T12:46:05.000Z,28.3
2019-02-26T12:47:20.000Z,28.3
2019-02-26T12:49:05.000Z,28.4
2019-02-26T12:50:09.000Z,28.4
2019-02-26T12:52:20.000Z,28.3
2019-02-26T12:54:05.000Z,28.4
2019-02-26T12:55:09.000Z,28.4
2019-02-26T12:57:20.000Z,28.4
2019-02-26T12:58:20.000Z,28.4
2019-02-26T13:00:05.000Z,28.4
2019-02-26T13:01:20.000Z,28.5
2019-02-26T13:03:05.000Z,28.5
2019-02-26T13:04:20.000Z,28.5
2019-02-26T13:06:09.000Z,28.6
2019-02-26T13:08:05.000Z,28.5
2019-02-26T13:09:20.000Z,28.5
2019-02-26T13:11:20.000Z,28.5
2019-02-26T13:13:05.000Z,28.6
2019-02-26T13:15:09.000Z,28.6
2019-02-26T13:16:20.000Z,28.6
2019-02-26T13:18:20.000Z,28.8
2019-02-26T13:19:20.000Z,28.9
2019-02-26T13:21:05.000Z,29.1
2019-02-26T13:22:11.000Z,29.1
2019-02-26T13:23:20.000Z,29.1
2019-02-26T13:25:05.000Z,29
2019-02-26T13:26:20.000Z,29
2019-02-26T13:33:13.000Z,28.6
2019-02-26T13:34:13.000Z,28.6
2019-02-26T13:35:28.000Z,28.7
2019-02-26T13:37:28.000Z,28.9
2019-02-26T13:39:13.000Z,29
2019-02-26T13:40:28.000Z,29
2019-02-26T13:43:13.000Z,29
2019-02-26T13:45:28.000Z,29
2019-02-26T13:46:28.000Z,29.1
2019-02-26T13:48:28.000Z,29.4
2019-02-26T13:49:28.000Z,29.5
2019-02-26T13:50:28.000Z,29.6
2019-02-26T13:51:28.000Z,29.7
2019-02-26T13:53:28.000Z,29.9
2019-02-26T13:54:28.000Z,30
2019-02-26T13:56:13.000Z,30.1
2019-02-26T13:57:28.000Z,30.1
2019-02-26T13:58:28.000Z,30.1
2019-02-26T14:00:28.000Z,30
2019-02-26T14:02:28.000Z,30
2019-02-26T14:04:28.000Z,30
2019-02-26T14:06:28.000Z,30
2019-02-26T14:08:28.000Z,30
2019-02-26T14:10:28.000Z,30
2019-02-26T14:11:28.000Z,30
2019-02-26T14:12:28.000Z,30.1
2019-02-26T14:13:28.000Z,30.2
2019-02-26T14:15:28.000Z,30.2
2019-02-26T14:16:28.000Z,30.2
2019-02-26T14:18:28.000Z,30.3
2019-02-26T14:20:28.000Z,30.2
2019-02-26T14:21:28.000Z,30.2
2019-02-26T14:22:28.000Z,30.3
2019-02-26T14:24:28.000Z,30.5
2019-02-26T14:25:28.000Z,30.6
2019-02-26T14:27:12.000Z,30.8
2019-02-26T14:28:28.000Z,30.9
2019-02-26T14:29:28.000Z,31
2019-02-26T14:31:28.000Z,31.2
2019-02-26T14:33:28.000Z,31.5
2019-02-26T14:35:13.000Z,32.2
2019-02-26T14:36:28.000Z,32.7
2019-02-26T14:38:28.000Z,33.6
2019-02-26T14:39:28.000Z,34
2019-02-26T14:41:13.000Z,34.5
2019-02-26T14:42:28.000Z,34.5
2019-02-26T14:43:28.000Z,34.5
2019-02-26T14:45:28.000Z,34
2019-02-26T14:47:28.000Z,33.2
2019-02-26T14:49:27.000Z,32.4
2019-02-26T14:51:28.000Z,31.9
2019-02-26T14:52:28.000Z,31.7
2019-02-26T14:54:28.000Z,31.4
2019-02-26T14:56:28.000Z,31.2
2019-02-26T14:58:28.000Z,31
2019-02-26T15:00:28.000Z,30.9
2019-02-26T15:02:28.000Z,30.8
2019-02-26T15:03:28.000Z,30.8
2019-02-26T15:05:28.000Z,30.8
2019-02-26T15:07:28.000Z,30.8
2019-02-26T15:09:28.000Z,30.5
2019-02-26T15:10:28.000Z,30.5
2019-02-26T15:12:28.000Z,30.5
2019-02-26T15:14:28.000Z,30.4
2019-02-26T15:16:13.000Z,30.3
2019-02-26T15:18:28.000Z,30.2
2019-02-26T15:19:28.000Z,30.2
2019-02-26T15:21:28.000Z,30.2
2019-02-26T15:23:28.000Z,30.2
2019-02-26T15:24:28.000Z,30.2
2019-02-26T15:25:28.000Z,30.3
2019-02-26T15:27:28.000Z,30.3
2019-02-26T15:28:28.000Z,30.2
2019-02-26T15:30:12.000Z,30.1
2019-02-26T15:31:28.000Z,30.1
2019-02-26T15:32:28.000Z,30.1
2019-02-26T15:34:12.000Z,30.2
2019-02-26T15:35:13.000Z,30.3
2019-02-26T15:36:28.000Z,30.2
2019-02-26T15:37:28.000Z,30.2
2019-02-26T15:39:28.000Z,30.2
2019-02-26T15:41:28.000Z,30.2
2019-02-26T15:43:28.000Z,30.2
2019-02-26T15:45:13.000Z,30.2
2019-02-26T15:46:28.000Z,30.1
2019-02-26T15:48:28.000Z,29.9
2019-02-26T15:50:28.000Z,29.8
2019-02-26T15:52:13.000Z,29.8
2019-02-26T15:53:13.000Z,29.8
2019-02-26T15:54:28.000Z,29.7
2019-02-26T15:55:28.000Z,29.7
2019-02-26T15:57:28.000Z,29.7
2019-02-26T15:59:28.000Z,29.6
2019-02-26T16:01:15.000Z,29.6
2019-02-26T16:03:28.000Z,29.5
2019-02-26T16:05:28.000Z,29.5
2019-02-26T16:07:28.000Z,29.5
2019-02-26T16:09:13.000Z,29.6
2019-02-26T16:10:28.000Z,29.6
2019-02-26T16:12:13.000Z,29.6
2019-02-26T16:13:28.000Z,29.5
2019-02-26T16:14:28.000Z,29.5
2019-02-26T16:15:28.000Z,29.5
2019-02-26T16:17:28.000Z,29.6
2019-02-26T16:18:28.000Z,29.7
2019-02-26T16:20:13.000Z,29.7
2019-02-26T16:21:28.000Z,29.6
2019-02-26T16:22:28.000Z,29.6
2019-02-26T16:24:28.000Z,29.6
2019-02-26T16:26:28.000Z,29.7
2019-02-26T16:28:28.000Z,29.7
2019-02-26T16:29:28.000Z,29.7
2019-02-26T16:30:28.000Z,29.8
2019-02-26T16:31:28.000Z,29.8
2019-02-26T16:33:13.000Z,29.8
2019-02-26T16:34:28.000Z,29.7
2019-02-26T16:35:28.000Z,29.7
2019-02-26T16:37:13.000Z,29.8
2019-02-26T16:38:14.000Z,29.7
2019-02-26T16:39:28.000Z,29.6
2019-02-26T16:41:28.000Z,29.5
2019-02-26T16:43:16.000Z,29.5
2019-02-26T16:44:28.000Z,29.4
2019-02-26T16:45:28.000Z,29.3
2019-02-26T16:47:14.000Z,29.3
2019-02-26T16:48:28.000Z,29.2
2019-02-26T16:50:28.000Z,29.1
2019-02-26T16:52:28.000Z,29
2019-02-26T16:53:28.000Z,29.1
2019-02-26T16:55:13.000Z,29.3
2019-02-26T16:56:28.000Z,29.2
2019-02-26T16:57:28.000Z,29.3
2019-02-26T16:58:28.000Z,29.4
2019-02-26T17:00:13.000Z,29.5
2019-02-26T17:01:28.000Z,29.5
2019-02-26T17:02:28.000Z,29.5
2019-02-26T17:04:13.000Z,29.5
2019-02-26T17:05:14.000Z,29.5
2019-02-26T17:06:28.000Z,29.4
2019-02-26T17:07:28.000Z,29.4
2019-02-26T17:09:28.000Z,29.4
2019-02-26T17:11:28.000Z,29.4
2019-02-26T17:13:28.000Z,29.3
2019-02-26T17:15:28.000Z,29.2
2019-02-26T17:17:28.000Z,29.2
2019-02-26T17:18:28.000Z,29.2
2019-02-26T17:20:13.000Z,29.2
2019-02-26T17:21:28.000Z,29.2
2019-02-26T17:23:13.000Z,29.1
2019-02-26T17:24:28.000Z,29
2019-02-26T17:26:28.000Z,28.8
2019-02-26T17:28:28.000Z,28.8
2019-02-26T17:30:28.000Z,28.8
2019-02-26T17:31:28.000Z,28.8
2019-02-26T17:33:13.000Z,28.9
2019-02-26T17:34:28.000Z,28.8
2019-02-26T17:35:28.000Z,28.9
2019-02-26T17:37:28.000Z,28.9
2019-02-26T17:39:28.000Z,29
2019-02-26T17:40:28.000Z,29
2019-02-26T17:42:13.000Z,29
2019-02-26T17:43:28.000Z,28.9
2019-02-26T17:44:28.000Z,28.9
2019-02-26T17:46:28.000Z,29
2019-02-26T17:48:28.000Z,29
2019-02-26T17:50:28.000Z,28.8
2019-02-26T17:52:28.000Z,28.8
2019-02-26T17:53:28.000Z,28.8
2019-02-26T17:54:28.000Z,28.8
2019-02-26T17:56:28.000Z,28.9
2019-02-26T17:57:28.000Z,29
2019-02-26T17:58:28.000Z,29.1
2019-02-26T18:00:28.000Z,29.1
2019-02-26T18:01:28.000Z,29.1
2019-02-26T18:03:28.000Z,29.2
2019-02-26T18:05:28.000Z,29.1
2019-02-26T18:07:28.000Z,29
2019-02-26T18:09:28.000Z,29
2019-02-26T18:10:28.000Z,29
2019-02-26T18:11:28.000Z,29
2019-02-26T18:13:28.000Z,29.1
2019-02-26T18:14:28.000Z,29.2
2019-02-26T18:16:28.000Z,29.2
2019-02-26T18:17:28.000Z,29.2
2019-02-26T18:19:28.000Z,29.2
2019-02-26T18:20:28.000Z,29.2
2019-02-26T18:22:28.000Z,29.3
2019-02-26T18:24:28.000Z,29.3
2019-02-26T18:26:13.000Z,29.2
2019-02-26T18:27:28.000Z,29.1
2019-02-26T18:29:28.000Z,28.8
2019-02-26T18:31:28.000Z,28.7
2019-02-26T18:33:28.000Z,28.6
2019-02-26T18:35:28.000Z,28.5
2019-02-26T18:36:28.000Z,28.6
2019-02-26T18:38:28.000Z,28.6
2019-02-26T18:40:28.000Z,28.6
2019-02-26T18:41:28.000Z,28.6
2019-02-26T18:43:13.000Z,28.6
2019-02-26T18:44:28.000Z,28.5
2019-02-26T18:45:28.000Z,28.5
2019-02-26T18:47:28.000Z,28.6
2019-02-26T18:49:28.000Z,28.6
2019-02-26T18:50:28.000Z,28.7
2019-02-26T18:52:28.000Z,28.7
2019-02-26T18:54:28.000Z,28.7
2019-02-26T18:56:28.000Z,28.6
2019-02-26T18:57:28.000Z,28.7
2019-02-26T18:59:28.000Z,28.7
2019-02-26T19:00:28.000Z,28.7
2019-02-26T19:01:28.000Z,28.8
2019-02-26T19:03:28.000Z,28.8
2019-02-26T19:05:28.000Z,28.7
2019-02-26T19:06:28.000Z,28.7
2019-02-26T19:07:28.000Z,28.8
2019-02-26T19:09:28.000Z,28.8
2019-02-26T19:11:16.000Z,28.7
2019-02-26T19:12:28.000Z,28.6
2019-02-26T19:14:28.000Z,28.5
2019-02-26T19:16:28.000Z,28.5
2019-02-26T19:17:28.000Z,28.5
2019-02-26T19:18:28.000Z,28.6
2019-02-26T19:19:28.000Z,28.7
2019-02-26T19:21:28.000Z,28.8
2019-02-26T19:22:28.000Z,28.8
2019-02-26T19:24:28.000Z,28.8
2019-02-26T19:26:13.000Z,28.8
2019-02-26T19:27:28.000Z,28.7
2019-02-26T19:28:28.000Z,28.7
2019-02-26T19:30:28.000Z,28.7
2019-02-26T19:32:13.000Z,28.7
2019-02-26T19:33:28.000Z,28.6
2019-02-26T19:34:28.000Z,28.6
2019-02-26T19:36:13.000Z,28.7
2019-02-26T19:37:28.000Z,28.7
2019-02-26T19:39:28.000Z,28.7
2019-02-26T19:41:28.000Z,28.6
2019-02-26T19:43:28.000Z,28.5
2019-02-26T19:44:28.000Z,28.5
2019-02-26T19:45:28.000Z,28.5
2019-02-26T19:47:14.000Z,28.5
2019-02-26T19:48:28.000Z,28.5
2019-02-26T19:50:13.000Z,28.5
2019-02-26T19:51:28.000Z,28.4
2019-02-26T19:53:28.000Z,28.3
2019-02-26T19:55:13.000Z,28.3
2019-02-26T19:56:28.000Z,28.2
2019-02-26T19:57:28.000Z,28.2
2019-02-26T19:59:13.000Z,28.2
2019-02-26T20:00:28.000Z,28.2
2019-02-26T20:01:28.000Z,28.3
2019-02-26T20:02:28.000Z,28.4
2019-02-26T20:04:13.000Z,28.4
2019-02-26T20:05:28.000Z,28.4
2019-02-26T20:07:28.000Z,28.4
2019-02-26T20:09:28.000Z,28.2
2019-02-26T20:11:13.000Z,28.2
2019-02-26T20:12:28.000Z,28.2
2019-02-26T20:14:13.000Z,28.3
2019-02-26T20:15:28.000Z,28.2
2019-02-26T20:17:13.000Z,28.1
2019-02-26T20:18:20.000Z,28
2019-02-26T20:19:28.000Z,27.9
2019-02-26T20:20:28.000Z,27.8
2019-02-26T20:22:28.000Z,27.8
2019-02-26T20:24:13.000Z,27.8
2019-02-26T20:25:28.000Z,27.8
2019-02-26T20:27:28.000Z,27.8
2019-02-26T20:28:28.000Z,27.8
2019-02-26T20:30:28.000Z,28
2019-02-26T20:32:28.000Z,28.1
2019-02-26T20:34:28.000Z,28
2019-02-26T20:36:13.000Z,27.9
2019-02-26T20:37:28.000Z,27.8
2019-02-26T20:38:28.000Z,27.9
2019-02-26T20:40:13.000Z,27.8
2019-02-26T20:41:28.000Z,27.9
2019-02-26T20:42:28.000Z,27.9
2019-02-26T20:44:28.000Z,28
2019-02-26T20:46:28.000Z,28
2019-02-26T20:47:28.000Z,28
2019-02-26T20:49:28.000Z,28.1
2019-02-26T20:51:28.000Z,28.1
2019-02-26T20:53:28.000Z,28.2